Terminal Aerodrome Forecast
Issued by NWS Brownsville, TX

Home | Current Version | Previous Version | Text Only | Print | Product List | Glossary On
Versions: 1 2 3 4 5 6 7 8 9 10 11 12 13 14 15 16 17 18 19 20 21 22 23 24 25 26 27 28
000
FTUS44 KBRO 201700
TAFMFE
TAF
KMFE 201736Z 2018/2118 35006KT P6SM OVC015
      TEMPO 2018/2022 5SM BR
     FM202200 01007KT P6SM OVC015
     FM210600 03006KT 5SM BR OVC009
     FM211200 02005KT 3SM BR OVC010=

USA.gov is the U.S. government's official web portal to all federal, state and local government web resources and services.